Time;durP1;ratioP1;P1;durP2;ratioP2;P2;SDS_P1;SDS_P2;PMS_P1;PMS_P2;Temp;Humidity;BMP_temperature;BMP_pressure;BME280_temperature;BME280_humidity;BME280_pressure;Samples;Min_cycle;Max_cycle;Signal;HPM_P1;HPM_P2
2023/03/18 00:00:31;;;;;;;10.23;6.60;;;9.50;1.00;;;;;;5057394;28;20455;-82
2023/03/18 00:02:58;;;;;;;12.23;6.90;;;9.50;1.00;;;;;;5062441;28;20461;-82
2023/03/18 00:05:25;;;;;;;11.87;6.50;;;9.50;1.00;;;;;;5049791;28;20609;-82
2023/03/18 00:07:52;;;;;;;11.13;6.60;;;9.50;1.00;;;;;;5060120;28;20469;-82
2023/03/18 00:10:19;;;;;;;11.47;6.30;;;9.50;1.00;;;;;;5059603;28;20590;-82
2023/03/18 00:12:48;;;;;;;11.53;6.50;;;9.60;1.00;;;;;;5063495;28;20464;-82
2023/03/18 00:15:18;;;;;;;9.73;6.07;;;9.50;1.00;;;;;;5065547;28;20487;-81
2023/03/18 00:17:48;;;;;;;11.07;6.17;;;9.60;1.00;;;;;;5062678;28;20894;-81
2023/03/18 00:20:17;;;;;;;12.43;6.93;;;9.60;1.00;;;;;;5056465;28;21324;-82
2023/03/18 00:22:45;;;;;;;9.53;6.40;;;9.50;1.00;;;;;;5062156;28;20975;-82
2023/03/18 00:25:14;;;;;;;10.60;6.23;;;9.50;1.00;;;;;;5060860;28;20442;-82
2023/03/18 00:27:41;;;;;;;10.73;6.13;;;9.50;1.00;;;;;;5061375;28;20465;-83
2023/03/18 00:30:11;;;;;;;13.17;7.20;;;9.50;1.00;;;;;;5063026;28;20499;-82
2023/03/18 00:32:38;;;;;;;10.40;5.70;;;9.40;1.00;;;;;;5060314;28;20468;-83
2023/03/18 00:35:06;;;;;;;11.13;6.10;;;9.40;1.00;;;;;;5058897;28;21290;-82
2023/03/18 00:37:35;;;;;;;10.77;6.67;;;9.40;1.00;;;;;;5060164;28;20427;-83
2023/03/18 00:40:05;;;;;;;10.83;6.50;;;9.40;1.00;;;;;;5059648;28;20464;-83
2023/03/18 00:42:37;;;;;;;11.37;5.80;;;9.40;1.00;;;;;;5065179;28;20456;-81
2023/03/18 00:45:07;;;;;;;10.07;5.70;;;9.40;1.00;;;;;;5057159;28;21283;-82
2023/03/18 00:47:37;;;;;;;9.90;6.70;;;9.30;1.00;;;;;;5061030;28;21775;-82
2023/03/18 00:50:07;;;;;;;9.40;5.93;;;9.30;1.00;;;;;;5066816;28;20466;-82
2023/03/18 00:52:34;;;;;;;11.90;6.30;;;9.30;1.00;;;;;;5051822;28;20511;-81
2023/03/18 00:55:01;;;;;;;10.17;6.20;;;9.20;1.00;;;;;;5054681;28;20467;-83
2023/03/18 00:57:28;;;;;;;11.20;5.80;;;9.20;1.00;;;;;;5059069;28;20487;-83
2023/03/18 00:59:55;;;;;;;8.67;6.10;;;9.10;1.00;;;;;;5063976;28;20562;-83
2023/03/18 01:02:23;;;;;;;9.17;5.77;;;9.10;1.00;;;;;;5059167;28;20526;-81
2023/03/18 01:04:52;;;;;;;9.80;6.43;;;9.00;1.00;;;;;;5059917;28;20478;-81
2023/03/18 01:07:19;;;;;;;10.07;6.50;;;9.00;1.00;;;;;;5063048;28;20486;-81
2023/03/18 01:09:47;;;;;;;10.13;5.80;;;9.00;1.00;;;;;;5058810;28;20964;-81
2023/03/18 01:12:14;;;;;;;10.80;5.97;;;9.00;1.00;;;;;;5062384;28;20471;-81
2023/03/18 01:14:43;;;;;;;11.10;5.70;;;9.00;1.00;;;;;;5061908;28;20514;-82
2023/03/18 01:17:10;;;;;;;12.30;6.60;;;8.90;1.00;;;;;;5052290;28;20447;-81
2023/03/18 01:19:38;;;;;;;10.83;5.90;;;8.90;1.00;;;;;;5061935;28;20547;-82
2023/03/18 01:22:07;;;;;;;9.23;5.80;;;8.90;1.00;;;;;;5062120;28;20420;-82
2023/03/18 01:24:34;;;;;;;12.77;7.07;;;8.90;1.00;;;;;;5057486;28;20450;-81
2023/03/18 01:27:01;;;;;;;10.17;5.63;;;8.90;1.00;;;;;;5056587;28;20461;-83
2023/03/18 01:29:29;;;;;;;10.97;5.97;;;8.90;1.00;;;;;;5056051;28;20643;-81
2023/03/18 01:31:56;;;;;;;10.13;5.87;;;8.90;1.00;;;;;;5060980;28;20482;-81
2023/03/18 01:34:23;;;;;;;9.30;6.17;;;8.80;1.00;;;;;;5060052;28;21431;-79
2023/03/18 01:36:54;;;;;;;10.67;5.67;;;8.80;1.00;;;;;;5060920;28;20466;-82
2023/03/18 01:39:23;;;;;;;11.70;6.20;;;8.80;1.00;;;;;;5063683;28;20454;-81
2023/03/18 01:41:51;;;;;;;10.60;6.90;;;8.80;1.00;;;;;;5058762;28;20470;-82
2023/03/18 01:44:21;;;;;;;9.40;5.23;;;8.90;1.00;;;;;;5060545;28;20482;-81
2023/03/18 01:46:48;;;;;;;12.27;6.50;;;8.80;1.00;;;;;;5060684;28;20524;-81
2023/03/18 01:49:19;;;;;;;10.03;5.70;;;8.80;1.00;;;;;;5064926;28;20526;-83
2023/03/18 01:51:51;;;;;;;11.23;5.77;;;8.90;1.00;;;;;;5067253;28;20480;-83
2023/03/18 01:54:19;;;;;;;12.63;6.83;;;8.90;1.00;;;;;;5064438;28;21302;-83
2023/03/18 01:56:50;;;;;;;8.97;5.17;;;9.00;1.00;;;;;;5068253;28;20538;-84
2023/03/18 01:59:18;;;;;;;9.50;5.57;;;8.90;1.00;;;;;;5060411;28;20484;-83
2023/03/18 02:01:50;;;;;;;9.33;5.90;;;8.90;1.00;;;;;;5064033;28;20854;-87
2023/03/18 02:04:18;;;;;;;9.27;6.17;;;8.90;1.00;;;;;;5064054;28;20478;-87
2023/03/18 02:06:45;;;;;;;10.60;6.27;;;9.00;1.00;;;;;;5070778;28;20959;-87
2023/03/18 02:09:13;;;;;;;10.10;5.80;;;9.00;1.00;;;;;;5047308;28;20543;-86
2023/03/18 02:11:44;;;;;;;17.00;6.10;;;9.00;1.00;;;;;;5046914;28;20538;-86
2023/03/18 02:14:14;;;;;;;8.03;5.20;;;9.00;1.00;;;;;;5049135;28;20474;-86
2023/03/18 02:16:46;;;;;;;10.00;5.87;;;9.00;1.00;;;;;;5064527;28;20569;-87
2023/03/18 02:19:27;;;;;;;9.80;5.90;;;8.90;1.00;;;;;;5065748;28;20809;-87
2023/03/18 02:22:02;;;;;;;9.77;5.47;;;9.00;1.00;;;;;;5057231;28;20576;-87
2023/03/18 02:24:36;;;;;;;9.03;5.63;;;8.90;1.00;;;;;;5049806;28;20460;-86
2023/03/18 02:27:14;;;;;;;10.10;5.53;;;8.90;1.00;;;;;;5062508;28;20431;-87
2023/03/18 02:29:43;;;;;;;10.20;5.33;;;9.00;1.00;;;;;;5076354;28;20416;-86
2023/03/18 02:32:11;;;;;;;10.07;6.30;;;9.00;1.00;;;;;;5064550;28;20468;-86
2023/03/18 02:34:40;;;;;;;10.50;6.03;;;9.10;1.00;;;;;;5065506;28;20534;-87
2023/03/18 02:37:07;;;;;;;9.13;5.27;;;9.10;1.00;;;;;;5052427;28;20479;-86
2023/03/18 02:39:34;;;;;;;11.20;5.10;;;9.10;1.00;;;;;;5066624;28;20462;-86
2023/03/18 02:42:03;;;;;;;9.37;5.30;;;9.10;1.00;;;;;;5064474;28;20494;-84
2023/03/18 02:44:32;;;;;;;8.60;5.40;;;9.10;1.00;;;;;;5066902;28;20558;-85
2023/03/18 02:47:03;;;;;;;11.73;5.70;;;9.10;1.00;;;;;;5063201;28;20459;-86
2023/03/18 02:49:31;;;;;;;9.93;5.60;;;9.10;1.00;;;;;;5059600;28;20463;-86
2023/03/18 02:51:58;;;;;;;10.30;5.80;;;9.00;1.00;;;;;;5067232;28;20540;-85
2023/03/18 02:54:28;;;;;;;9.03;5.33;;;8.90;1.00;;;;;;5059297;28;20939;-86
2023/03/18 02:56:56;;;;;;;10.10;6.47;;;9.00;1.00;;;;;;5049636;28;20531;-85
2023/03/18 02:59:24;;;;;;;10.83;5.70;;;9.00;1.00;;;;;;5044082;28;20454;-86
2023/03/18 03:01:54;;;;;;;9.33;5.37;;;9.00;1.00;;;;;;5045051;28;20468;-86
2023/03/18 03:04:25;;;;;;;11.43;5.80;;;9.00;1.00;;;;;;5048180;28;20467;-87
2023/03/18 03:06:55;;;;;;;8.83;5.50;;;9.00;1.00;;;;;;5040716;28;20459;-87
2023/03/18 03:09:24;;;;;;;9.30;5.33;;;9.00;1.00;;;;;;5052400;28;20449;-86
2023/03/18 03:11:51;;;;;;;9.17;5.40;;;9.00;1.00;;;;;;5066176;28;20452;-86
2023/03/18 03:14:18;;;;;;;11.70;6.07;;;9.00;1.00;;;;;;5065594;27;20474;-87
2023/03/18 03:16:45;;;;;;;11.63;5.60;;;9.00;1.00;;;;;;5067683;28;21059;-84
2023/03/18 03:19:14;;;;;;;14.53;6.87;;;9.00;1.00;;;;;;5047641;28;20505;-87
2023/03/18 03:21:41;;;;;;;9.20;5.43;;;9.00;1.00;;;;;;5047992;28;20455;-86
2023/03/18 03:24:08;;;;;;;15.13;6.70;;;9.10;1.00;;;;;;5044358;28;20984;-86
2023/03/18 03:26:36;;;;;;;12.83;6.43;;;9.10;1.00;;;;;;5047789;28;20471;-87
2023/03/18 03:29:05;;;;;;;9.67;5.83;;;9.10;1.00;;;;;;5043927;28;21299;-86
2023/03/18 03:31:32;;;;;;;11.73;6.70;;;9.10;1.00;;;;;;5075711;28;20988;-87
2023/03/18 03:33:59;;;;;;;10.80;6.53;;;9.10;1.00;;;;;;5048438;28;20464;-88
2023/03/18 03:36:28;;;;;;;10.37;6.60;;;9.20;1.00;;;;;;5053689;28;20541;-84
2023/03/18 03:38:55;;;;;;;9.60;6.17;;;9.20;1.00;;;;;;5047360;28;20450;-86
2023/03/18 03:41:22;;;;;;;10.13;6.30;;;9.10;1.00;;;;;;5046473;28;20449;-86
2023/03/18 03:43:50;;;;;;;9.83;6.07;;;9.10;1.00;;;;;;5046333;28;20465;-86
2023/03/18 03:46:16;;;;;;;10.60;5.93;;;9.10;1.00;;;;;;5043359;28;20541;-86
2023/03/18 03:48:44;;;;;;;8.87;5.50;;;9.00;1.00;;;;;;5043890;28;20567;-86
2023/03/18 03:51:11;;;;;;;10.60;5.90;;;9.00;1.00;;;;;;5068343;28;20490;-85
2023/03/18 03:53:39;;;;;;;10.43;6.60;;;9.00;1.00;;;;;;5062162;28;20555;-86
2023/03/18 03:56:07;;;;;;;10.53;6.50;;;9.00;1.00;;;;;;5064418;28;20462;-86
2023/03/18 03:58:35;;;;;;;9.60;5.90;;;8.90;1.00;;;;;;5069501;28;20479;-85
2023/03/18 04:01:03;;;;;;;9.60;6.37;;;8.90;1.00;;;;;;5072501;28;21208;-85
2023/03/18 04:03:30;;;;;;;10.77;6.00;;;8.90;1.00;;;;;;5065407;28;20503;-86
2023/03/18 04:05:57;;;;;;;11.10;6.50;;;8.90;1.00;;;;;;5072904;28;20461;-86
2023/03/18 04:08:25;;;;;;;10.57;5.80;;;8.80;1.00;;;;;;5068308;28;20495;-87
2023/03/18 04:10:53;;;;;;;11.57;6.07;;;8.90;1.00;;;;;;5068431;28;21178;-86
2023/03/18 04:13:20;;;;;;;10.83;6.80;;;8.90;1.00;;;;;;5063224;28;20509;-87
2023/03/18 04:15:47;;;;;;;10.40;5.90;;;8.80;1.00;;;;;;5053818;28;20433;-86
2023/03/18 04:18:15;;;;;;;11.03;5.90;;;8.90;1.00;;;;;;5053943;28;20480;-86
2023/03/18 04:20:43;;;;;;;13.33;6.40;;;8.80;1.00;;;;;;5050870;27;20603;-84
2023/03/18 04:23:10;;;;;;;12.00;6.30;;;8.80;1.00;;;;;;5057069;28;20487;-85
2023/03/18 04:25:37;;;;;;;11.60;7.27;;;8.80;1.00;;;;;;5064728;28;20455;-88
2023/03/18 04:28:05;;;;;;;9.10;6.20;;;8.80;1.00;;;;;;5054872;28;20456;-86
2023/03/18 04:30:32;;;;;;;10.10;6.20;;;8.80;1.00;;;;;;5064304;28;20460;-86
2023/03/18 04:33:02;;;;;;;13.03;6.77;;;8.80;1.00;;;;;;5066123;28;20543;-85
2023/03/18 04:35:29;;;;;;;9.70;6.13;;;8.80;1.00;;;;;;5043272;27;20549;-87
2023/03/18 04:37:56;;;;;;;10.37;6.67;;;8.80;1.00;;;;;;5043242;28;20480;-86
2023/03/18 04:40:23;;;;;;;12.57;5.70;;;8.80;1.00;;;;;;5055364;28;20424;-86
2023/03/18 04:42:51;;;;;;;10.93;6.80;;;8.70;1.00;;;;;;5091526;27;21169;-86
2023/03/18 04:45:19;;;;;;;12.47;6.27;;;8.70;1.00;;;;;;5062665;28;20537;-85
2023/03/18 04:47:46;;;;;;;10.60;5.90;;;8.70;1.00;;;;;;5061832;28;20479;-86
2023/03/18 04:50:14;;;;;;;11.33;6.50;;;8.70;1.00;;;;;;5066478;28;21311;-86
2023/03/18 04:52:43;;;;;;;10.13;6.13;;;8.70;1.00;;;;;;5063170;28;20439;-87
2023/03/18 04:55:12;;;;;;;9.27;6.27;;;8.70;1.00;;;;;;5059108;28;20491;-86
2023/03/18 04:57:41;;;;;;;10.93;6.67;;;8.60;1.00;;;;;;5060618;28;21199;-85
2023/03/18 05:00:11;;;;;;;10.60;5.57;;;8.70;1.00;;;;;;5063145;28;21137;-85
2023/03/18 05:02:40;;;;;;;11.93;6.90;;;8.70;1.00;;;;;;5062625;28;20474;-87
2023/03/18 05:05:08;;;;;;;10.27;6.60;;;8.70;1.00;;;;;;5062653;28;20455;-86
2023/03/18 05:07:35;;;;;;;10.80;6.77;;;8.60;1.00;;;;;;5046035;28;20460;-86
2023/03/18 05:10:03;;;;;;;9.77;7.07;;;8.70;1.00;;;;;;5056139;28;21260;-86
2023/03/18 05:12:30;;;;;;;10.77;7.10;;;8.70;1.00;;;;;;5057697;28;20515;-88
2023/03/18 05:15:00;;;;;;;12.23;7.30;;;8.70;1.00;;;;;;5047255;28;20551;-86
2023/03/18 05:17:29;;;;;;;13.00;7.67;;;8.60;1.00;;;;;;5043848;28;20755;-86
2023/03/18 05:19:57;;;;;;;9.73;6.50;;;8.50;1.00;;;;;;5045130;28;20462;-84
2023/03/18 05:22:25;;;;;;;11.47;6.40;;;8.60;1.00;;;;;;5041101;28;21304;-85
2023/03/18 05:24:52;;;;;;;9.97;7.17;;;8.60;1.00;;;;;;5045639;28;20479;-86
2023/03/18 05:27:20;;;;;;;13.20;7.90;;;8.40;1.00;;;;;;5042722;28;20914;-86
2023/03/18 05:29:47;;;;;;;13.30;7.50;;;8.40;1.00;;;;;;5049654;28;20425;-86
2023/03/18 05:32:15;;;;;;;10.70;7.17;;;8.30;1.00;;;;;;5043090;28;20488;-85
2023/03/18 05:34:42;;;;;;;11.70;7.30;;;8.30;1.00;;;;;;5043493;28;20453;-85
2023/03/18 05:37:14;;;;;;;12.17;8.43;;;8.30;1.00;;;;;;5047833;28;20453;-85
2023/03/18 05:39:41;;;;;;;14.40;7.70;;;8.30;1.00;;;;;;5061161;28;20502;-84
2023/03/18 05:42:09;;;;;;;11.20;6.77;;;8.30;1.00;;;;;;5064136;28;22491;-86
2023/03/18 05:44:37;;;;;;;11.80;7.90;;;8.20;1.00;;;;;;5064453;28;20459;-86
2023/03/18 05:47:05;;;;;;;13.67;7.40;;;8.20;1.00;;;;;;5048282;28;20957;-85
2023/03/18 05:49:32;;;;;;;10.87;7.20;;;8.20;1.00;;;;;;5043144;28;20831;-87
2023/03/18 05:52:00;;;;;;;12.23;6.87;;;8.20;1.00;;;;;;5042323;28;20471;-85
2023/03/18 05:54:29;;;;;;;12.93;7.20;;;8.20;1.00;;;;;;5044966;28;20444;-86
2023/03/18 05:56:57;;;;;;;10.03;6.67;;;8.20;1.00;;;;;;5043543;28;20468;-86
2023/03/18 05:59:29;;;;;;;11.60;7.10;;;8.20;1.00;;;;;;5045318;28;20473;-86
2023/03/18 06:01:56;;;;;;;11.27;7.17;;;8.20;1.00;;;;;;5059891;28;21245;-86
2023/03/18 06:04:23;;;;;;;10.70;6.83;;;8.20;1.00;;;;;;5083505;27;20451;-84
2023/03/18 06:06:50;;;;;;;11.37;7.53;;;8.20;1.00;;;;;;5064055;28;20473;-85
2023/03/18 06:09:17;;;;;;;11.77;7.90;;;8.30;1.00;;;;;;5064020;28;20460;-86
2023/03/18 06:11:46;;;;;;;11.57;7.50;;;8.30;1.00;;;;;;5061042;28;20451;-84
2023/03/18 06:14:13;;;;;;;11.43;8.20;;;8.30;1.00;;;;;;5062838;28;20457;-84
2023/03/18 06:16:40;;;;;;;12.37;7.70;;;8.30;1.00;;;;;;5062582;28;20463;-87
2023/03/18 06:19:09;;;;;;;12.03;7.67;;;8.30;1.00;;;;;;5066685;28;20449;-87
2023/03/18 06:21:37;;;;;;;13.77;7.60;;;8.40;1.00;;;;;;5066973;28;20471;-86
2023/03/18 06:24:06;;;;;;;14.17;7.40;;;8.40;1.00;;;;;;5066273;28;20428;-87
2023/03/18 06:26:34;;;;;;;14.30;7.47;;;8.50;1.00;;;;;;5060123;28;20440;-88
2023/03/18 06:29:05;;;;;;;12.70;7.50;;;8.40;1.00;;;;;;5050441;28;20455;-87
2023/03/18 06:31:33;;;;;;;12.03;6.80;;;8.40;1.00;;;;;;5063235;28;20468;-85
2023/03/18 06:34:00;;;;;;;11.90;7.33;;;8.50;1.00;;;;;;5067556;28;20427;-87
2023/03/18 06:36:27;;;;;;;12.37;7.37;;;8.50;1.00;;;;;;5063713;28;20937;-87
2023/03/18 06:38:55;;;;;;;10.83;7.57;;;8.50;1.00;;;;;;5066293;28;20571;-88
2023/03/18 06:41:22;;;;;;;10.60;6.87;;;8.50;1.00;;;;;;5066271;28;20509;-86
2023/03/18 06:43:50;;;;;;;12.10;8.10;;;8.60;1.00;;;;;;5064272;28;20539;-88
2023/03/18 06:46:18;;;;;;;12.33;7.27;;;8.60;1.00;;;;;;5060172;28;20475;-88
2023/03/18 06:48:45;;;;;;;12.67;7.33;;;8.60;1.00;;;;;;5068135;28;20464;-87
2023/03/18 06:51:13;;;;;;;12.27;7.17;;;8.60;1.00;;;;;;5060208;28;20800;-87
2023/03/18 06:53:41;;;;;;;10.90;7.30;;;8.60;1.00;;;;;;5065962;28;20455;-87
2023/03/18 06:56:08;;;;;;;10.60;7.47;;;8.70;1.00;;;;;;5063872;28;20416;-87
2023/03/18 06:58:35;;;;;;;14.43;7.60;;;8.70;1.00;;;;;;5061883;28;21000;-87
2023/03/18 07:01:02;;;;;;;13.20;7.67;;;8.70;1.00;;;;;;5057976;28;20471;-84
2023/03/18 07:03:31;;;;;;;12.93;7.30;;;8.70;1.00;;;;;;5063361;28;20473;-87
2023/03/18 07:05:58;;;;;;;11.30;7.27;;;8.80;1.00;;;;;;5058644;28;20534;-86
2023/03/18 07:08:25;;;;;;;11.23;7.50;;;8.80;1.00;;;;;;5066189;28;20458;-86
2023/03/18 07:10:53;;;;;;;11.90;7.13;;;8.90;1.00;;;;;;5065539;28;20879;-88
2023/03/18 07:13:20;;;;;;;13.27;8.13;;;8.90;1.00;;;;;;5063129;28;20448;-87
2023/03/18 07:15:47;;;;;;;12.47;7.10;;;8.90;1.00;;;;;;5062058;28;20475;-85
2023/03/18 07:18:14;;;;;;;10.90;7.10;;;9.10;1.00;;;;;;5063553;28;20483;-86
2023/03/18 07:20:43;;;;;;;12.67;7.13;;;9.20;1.00;;;;;;5065538;28;20475;-85
2023/03/18 07:23:10;;;;;;;10.20;6.57;;;9.40;1.00;;;;;;5061136;28;20901;-86
2023/03/18 07:25:40;;;;;;;12.50;6.80;;;9.50;1.00;;;;;;5061757;28;20458;-86
2023/03/18 07:28:08;;;;;;;10.93;7.00;;;9.60;1.00;;;;;;5061934;28;20436;-87
2023/03/18 07:30:35;;;;;;;10.30;7.37;;;9.70;1.00;;;;;;5065388;28;20478;-89
2023/03/18 07:33:02;;;;;;;11.93;7.10;;;9.80;1.00;;;;;;5067896;28;20498;-86
2023/03/18 07:35:29;;;;;;;11.07;7.13;;;9.80;1.00;;;;;;5079418;28;21529;-87
2023/03/18 07:37:58;;;;;;;11.07;6.97;;;10.00;1.00;;;;;;5077142;28;20420;-87
2023/03/18 07:40:25;;;;;;;12.27;7.40;;;10.00;1.00;;;;;;5068896;28;20443;-88
2023/03/18 07:42:52;;;;;;;11.40;7.47;;;10.10;1.00;;;;;;5072501;28;21273;-87
2023/03/18 07:45:24;;;;;;;11.07;7.90;;;10.10;1.00;;;;;;5069039;28;20460;-86
2023/03/18 07:47:51;;;;;;;11.40;6.80;;;10.10;1.00;;;;;;5066009;28;20435;-87
2023/03/18 07:50:18;;;;;;;10.73;6.43;;;10.20;1.00;;;;;;5071607;28;20515;-86
2023/03/18 07:52:50;;;;;;;11.13;7.30;;;10.30;1.00;;;;;;5068646;28;21170;-88
2023/03/18 07:55:20;;;;;;;13.73;8.80;;;10.30;1.00;;;;;;5067123;28;20465;-87
2023/03/18 07:57:49;;;;;;;10.80;6.70;;;10.40;1.00;;;;;;5063753;28;20464;-87
2023/03/18 08:00:17;;;;;;;10.13;7.60;;;10.50;1.00;;;;;;5058576;27;20475;-88
2023/03/18 08:02:44;;;;;;;12.43;7.97;;;10.60;1.00;;;;;;5072169;28;20455;-89
2023/03/18 08:05:12;;;;;;;10.83;6.80;;;10.80;1.00;;;;;;5068691;28;20524;-88
2023/03/18 08:07:39;;;;;;;12.77;8.40;;;10.80;1.00;;;;;;5068540;28;20594;-87
2023/03/18 08:10:08;;;;;;;11.30;7.40;;;11.00;1.00;;;;;;5071449;28;20561;-85
2023/03/18 08:12:37;;;;;;;13.80;8.03;;;11.00;1.00;;;;;;5064175;28;20542;-88
2023/03/18 08:15:07;;;;;;;10.63;6.50;;;11.00;1.00;;;;;;5069530;28;20923;-88
2023/03/18 08:17:35;;;;;;;14.33;7.40;;;11.00;1.00;;;;;;5071232;27;20469;-88
2023/03/18 08:20:03;;;;;;;10.93;6.67;;;11.10;1.00;;;;;;5094334;27;20472;-87
2023/03/18 08:22:30;;;;;;;11.83;6.73;;;11.30;1.00;;;;;;5047456;28;21023;-88
2023/03/18 08:24:57;;;;;;;12.27;7.53;;;11.60;1.00;;;;;;5062623;27;20476;-87
2023/03/18 08:27:25;;;;;;;14.80;7.20;;;11.80;1.00;;;;;;5071086;28;21428;-87
2023/03/18 08:29:57;;;;;;;10.97;6.43;;;12.00;1.00;;;;;;5073897;28;20448;-87
2023/03/18 08:35:43;;;;;;;10.60;7.70;;;12.40;1.00;;;;;;5065176;27;21303;-92
2023/03/18 08:42:24;;;;;;;10.43;6.50;;;12.70;1.00;;;;;;5034182;28;21003;-87
2023/03/18 08:44:58;;;;;;;12.43;7.10;;;13.10;1.00;;;;;;5062187;28;20423;-82
2023/03/18 08:47:43;;;;;;;11.40;7.33;;;13.30;1.00;;;;;;5079951;28;20490;-84
2023/03/18 08:50:12;;;;;;;12.60;7.27;;;13.70;1.00;;;;;;5048906;28;20475;-89
2023/03/18 08:53:15;;;;;;;13.90;7.77;;;14.00;1.00;;;;;;5070489;28;20466;-89
2023/03/18 08:55:42;;;;;;;11.77;7.30;;;14.50;1.00;;;;;;5061526;27;20456;-87
2023/03/18 08:58:15;;;;;;;9.53;6.27;;;14.70;1.00;;;;;;5069971;28;20512;-87
2023/03/18 09:00:45;;;;;;;12.30;6.10;;;14.70;1.00;;;;;;5077715;28;20561;-87
2023/03/18 09:03:56;;;;;;;11.53;6.40;;;15.20;1.00;;;;;;5071948;28;20437;-85
2023/03/18 09:06:31;;;;;;;13.03;6.80;;;15.50;1.00;;;;;;5071309;28;21020;-87
2023/03/18 09:09:21;;;;;;;11.93;7.20;;;15.60;1.00;;;;;;5074136;28;20440;-88
2023/03/18 09:11:48;;;;;;;9.40;6.53;;;15.90;1.00;;;;;;5085078;27;21274;-87
2023/03/18 09:14:16;;;;;;;10.37;7.20;;;15.90;1.00;;;;;;5066747;27;20517;-85
2023/03/18 09:16:44;;;;;;;12.60;7.03;;;15.60;1.00;;;;;;5090837;27;20984;-85
2023/03/18 09:19:12;;;;;;;11.93;6.63;;;15.40;1.00;;;;;;5088340;27;20498;-87
2023/03/18 09:21:45;;;;;;;10.50;6.43;;;15.30;1.00;;;;;;5075621;28;20470;-88
2023/03/18 09:24:15;;;;;;;10.90;7.10;;;15.60;1.00;;;;;;5077772;28;20475;-87
2023/03/18 09:26:42;;;;;;;9.03;6.00;;;16.40;1.00;;;;;;5072567;28;20435;-87
2023/03/18 09:29:11;;;;;;;10.70;7.10;;;17.60;1.00;;;;;;5076999;28;20468;-85
2023/03/18 09:31:40;;;;;;;9.73;6.63;;;18.80;1.00;;;;;;5081482;28;20457;-82
2023/03/18 09:34:08;;;;;;;9.30;6.83;;;20.00;1.00;;;;;;5066550;28;20451;-86
2023/03/18 09:36:57;;;;;;;10.47;7.33;;;20.30;1.00;;;;;;5071426;28;20465;-89
2023/03/18 09:39:24;;;;;;;9.60;6.67;;;19.90;1.00;;;;;;5078941;28;20458;-88
2023/03/18 09:42:14;;;;;;;11.00;6.90;;;19.20;1.00;;;;;;5087312;28;20604;-89
2023/03/18 09:44:44;;;;;;;10.87;7.10;;;18.90;1.00;;;;;;5071395;28;20476;-86
2023/03/18 09:47:24;;;;;;;9.93;6.50;;;20.00;1.00;;;;;;5075781;28;20494;-86
2023/03/18 09:50:15;;;;;;;13.40;6.80;;;20.80;1.00;;;;;;5066667;28;20864;-85
2023/03/18 09:52:54;;;;;;;10.07;6.97;;;21.50;1.00;;;;;;5054719;28;20414;-86
2023/03/18 09:55:45;;;;;;;13.50;7.00;;;21.40;1.00;;;;;;5076462;28;20446;-85
2023/03/18 09:58:18;;;;;;;10.47;6.50;;;22.30;1.00;;;;;;5067005;28;20973;-85
2023/03/18 10:00:46;;;;;;;9.37;6.90;;;22.70;1.00;;;;;;5068154;28;20456;-84
2023/03/18 10:03:20;;;;;;;10.20;6.63;;;23.50;1.00;;;;;;5070476;28;20431;-85
2023/03/18 10:05:52;;;;;;;10.33;6.40;;;24.40;1.00;;;;;;5064723;28;20479;-86
2023/03/18 10:08:31;;;;;;;8.90;7.60;;;25.20;1.00;;;;;;5069559;28;20492;-86
2023/03/18 10:11:06;;;;;;;10.40;7.20;;;25.80;1.00;;;;;;5070603;28;20425;-87
2023/03/18 10:13:46;;;;;;;8.00;6.70;;;26.20;1.00;;;;;;5066166;28;20477;-86
2023/03/18 10:16:22;;;;;;;11.33;6.30;;;26.20;1.00;;;;;;5075994;28;20502;-87
2023/03/18 10:18:50;;;;;;;11.70;7.20;;;26.50;1.00;;;;;;5086834;27;20433;-87
2023/03/18 10:21:31;;;;;;;12.23;7.60;;;26.60;1.00;;;;;;5073986;28;20547;-86
2023/03/18 10:24:15;;;;;;;8.00;6.10;;;27.00;1.00;;;;;;5074069;28;20455;-87
2023/03/18 10:26:49;;;;;;;10.57;6.90;;;27.50;1.00;;;;;;5077472;28;20474;-87
2023/03/18 10:29:39;;;;;;;10.00;7.07;;;27.90;1.00;;;;;;5068093;28;20537;-88
2023/03/18 10:32:13;;;;;;;8.27;6.43;;;28.00;1.00;;;;;;5080915;27;20563;-83
2023/03/18 10:35:01;;;;;;;8.60;6.33;;;28.20;1.00;;;;;;5078812;27;20447;-89
2023/03/18 10:37:38;;;;;;;8.40;6.40;;;28.30;1.00;;;;;;5088295;28;20442;-90
2023/03/18 10:40:17;;;;;;;10.13;6.70;;;28.30;1.00;;;;;;5077869;28;20879;-90
2023/03/18 10:42:58;;;;;;;8.00;6.37;;;27.90;1.00;;;;;;5087132;28;20490;-87
2023/03/18 10:45:33;;;;;;;11.77;7.57;;;27.90;1.00;;;;;;5077137;28;20450;-88
2023/03/18 10:48:09;;;;;;;8.93;6.83;;;27.80;1.00;;;;;;5063390;28;20479;-90
2023/03/18 10:50:40;;;;;;;8.40;6.50;;;27.80;1.00;;;;;;5082713;27;20502;-89
2023/03/18 10:53:17;;;;;;;7.40;6.20;;;27.10;1.00;;;;;;5073303;28;20945;-89
2023/03/18 10:55:56;;;;;;;7.57;5.90;;;26.80;1.00;;;;;;5094961;28;20410;-90
2023/03/18 10:58:24;;;;;;;7.80;6.67;;;26.90;1.00;;;;;;5078388;28;20484;-90
2023/03/18 11:00:56;;;;;;;10.00;7.10;;;27.20;1.00;;;;;;5087205;28;20488;-90
2023/03/18 11:03:27;;;;;;;8.93;5.73;;;27.10;1.00;;;;;;5077736;28;20488;-90
2023/03/18 11:05:56;;;;;;;9.50;6.67;;;27.60;1.00;;;;;;5077655;27;20448;-89
2023/03/18 11:08:35;;;;;;;8.70;5.57;;;28.10;1.00;;;;;;5076509;28;20609;-92
2023/03/18 11:11:33;;;;;;;9.67;5.93;;;27.80;1.00;;;;;;5081327;28;20428;-93
2023/03/18 11:14:02;;;;;;;9.03;6.67;;;26.70;1.00;;;;;;5056626;28;20525;-91
2023/03/18 11:16:41;;;;;;;7.50;6.50;;;27.10;1.00;;;;;;5077981;28;20464;-90
2023/03/18 11:19:29;;;;;;;7.67;5.93;;;27.60;1.00;;;;;;5071467;28;20507;-91
2023/03/18 11:22:14;;;;;;;11.73;9.77;;;28.30;1.00;;;;;;5071204;28;20478;-91
2023/03/18 11:24:43;;;;;;;9.43;6.10;;;28.50;1.00;;;;;;5077856;28;20465;-90
2023/03/18 11:27:28;;;;;;;8.73;6.17;;;27.00;1.00;;;;;;5245771;22;20440;-88
2023/03/18 11:29:58;;;;;;;7.43;5.57;;;25.90;1.00;;;;;;5071190;28;20441;-91
2023/03/18 11:32:28;;;;;;;8.23;5.67;;;25.60;1.00;;;;;;5075665;28;20457;-89
2023/03/18 11:35:00;;;;;;;9.53;5.77;;;25.70;1.00;;;;;;5080610;28;20463;-90
2023/03/18 11:37:30;;;;;;;13.57;7.43;;;25.20;1.00;;;;;;5083126;28;20415;-89
2023/03/18 11:40:17;;;;;;;9.00;6.47;;;24.50;1.00;;;;;;5083099;28;20447;-90
2023/03/18 11:42:47;;;;;;;8.17;6.03;;;23.90;1.00;;;;;;5096450;28;20437;-89
2023/03/18 11:45:36;;;;;;;22.53;20.20;;;23.30;1.00;;;;;;5096968;28;20455;-90
2023/03/18 11:48:06;;;;;;;9.73;6.27;;;22.90;1.00;;;;;;5085368;28;20474;-86
2023/03/18 11:50:40;;;;;;;9.27;6.00;;;22.90;1.00;;;;;;5106483;27;20431;-89
2023/03/18 11:53:16;;;;;;;9.40;6.47;;;22.60;1.00;;;;;;5099565;28;20490;-91
2023/03/18 11:55:47;;;;;;;8.97;6.63;;;21.90;1.00;;;;;;5102645;28;20442;-90
2023/03/18 11:58:47;;;;;;;10.93;6.07;;;21.70;1.00;;;;;;5099619;28;20450;-89
2023/03/18 12:01:20;;;;;;;10.50;7.03;;;21.70;1.00;;;;;;5105478;27;20487;-90
2023/03/18 12:04:04;;;;;;;8.80;5.83;;;22.10;1.00;;;;;;5091302;28;20439;-89
2023/03/18 12:06:37;;;;;;;13.87;8.90;;;22.10;1.00;;;;;;5097788;28;20447;-90
2023/03/18 12:09:11;;;;;;;9.23;5.53;;;22.60;1.00;;;;;;5100712;27;20430;-90
2023/03/18 12:12:00;;;;;;;13.50;8.90;;;24.40;1.00;;;;;;5103593;28;20470;-91
2023/03/18 12:14:34;;;;;;;9.80;5.83;;;26.10;1.00;;;;;;5101296;28;21053;-91
2023/03/18 12:17:14;;;;;;;9.50;5.50;;;27.40;1.00;;;;;;5085638;28;20459;-89
2023/03/18 12:20:09;;;;;;;10.43;6.23;;;27.80;1.00;;;;;;5099898;28;20461;-90
2023/03/18 12:22:59;;;;;;;9.63;6.03;;;28.20;1.00;;;;;;5094776;28;20450;-87
2023/03/18 12:25:54;;;;;;;10.30;5.70;;;28.20;1.00;;;;;;5094413;28;20497;-90
2023/03/18 12:28:38;;;;;;;8.60;5.53;;;28.70;1.00;;;;;;5085350;28;21028;-90
2023/03/18 12:31:36;;;;;;;8.03;5.00;;;30.30;1.00;;;;;;5093208;28;20472;-89
2023/03/18 12:34:04;;;;;;;8.37;5.83;;;30.20;1.00;;;;;;5099223;28;20438;-90
2023/03/18 12:36:52;;;;;;;10.43;5.67;;;29.50;1.00;;;;;;5105907;27;20549;-90
2023/03/18 12:39:59;;;;;;;8.10;6.50;;;30.00;1.00;;;;;;5098224;28;20459;-91
2023/03/18 12:42:38;;;;;;;6.87;5.47;;;30.60;1.00;;;;;;5102612;28;20446;-88
2023/03/18 12:45:15;;;;;;;7.23;5.20;;;30.50;1.00;;;;;;5103378;28;20451;-91
2023/03/18 12:47:48;;;;;;;7.67;4.60;;;30.20;1.00;;;;;;5088918;28;21303;-90
2023/03/18 12:50:18;;;;;;;7.13;5.30;;;29.90;1.00;;;;;;5088803;28;20512;-89
2023/03/18 12:52:48;;;;;;;7.77;4.97;;;30.20;1.00;;;;;;5100046;28;20542;-89
2023/03/18 12:55:18;;;;;;;8.43;5.93;;;30.90;1.00;;;;;;5100399;28;20473;-88
2023/03/18 12:57:49;;;;;;;5.90;4.87;;;31.40;1.00;;;;;;5089190;28;20420;-90
2023/03/18 13:00:23;;;;;;;11.37;5.97;;;32.00;1.00;;;;;;5075731;28;20463;-90
2023/03/18 13:02:58;;;;;;;5.67;4.50;;;32.30;1.00;;;;;;5089316;28;20473;-89
2023/03/18 13:05:33;;;;;;;9.43;5.43;;;33.10;1.00;;;;;;5095095;28;20541;-89
2023/03/18 13:08:26;;;;;;;9.30;5.40;;;33.70;1.00;;;;;;5097218;28;20485;-89
2023/03/18 13:11:03;;;;;;;7.60;5.60;;;33.50;1.00;;;;;;5084983;28;20541;-88
2023/03/18 13:13:33;;;;;;;7.30;4.80;;;33.70;1.00;;;;;;5091391;28;20856;-87
2023/03/18 13:16:02;;;;;;;6.63;4.80;;;33.70;1.00;;;;;;5097879;28;20453;-89
2023/03/18 13:18:38;;;;;;;7.90;6.37;;;31.70;1.00;;;;;;5088689;28;20546;-91
2023/03/18 13:21:07;;;;;;;7.87;7.07;;;29.60;1.00;;;;;;5088741;28;20459;-89
2023/03/18 13:24:04;;;;;;;9.70;5.93;;;27.90;1.00;;;;;;5089211;28;20465;-89